Terminal Aerodrome Forecast
Issued by NWS San Angelo, TX

Home | Current Version | Previous Version | Text Only | Print | Product List | Glossary On
Versions: 1 2 3 4 5 6 7 8 9 10 11 12 13 14 15 16 17 18 19 20 21 22 23 24 25 26 27 28 29 30 31 32 33 34 35
000
FTUS44 KSJT 290500
TAFSJT
TAF
KSJT 290539Z 2906/3006 12011KT P6SM -SHRA VCTS BKN090CB OVC200
     FM290700 16009KT P6SM BKN250
     FM291100 17007KT P6SM BKN025
     FM291500 18012G20KT P6SM BKN050
     FM292300 16010KT P6SM FEW250=

USA.gov is the U.S. government's official web portal to all federal, state and local government web resources and services.